Time;durP1;ratioP1;P1;durP2;ratioP2;P2;SDS_P1;SDS_P2;PMS_P1;PMS_P2;Temp;Humidity;BMP_temperature;BMP_pressure;BME280_temperature;BME280_humidity;BME280_pressure;Samples;Min_cycle;Max_cycle;Signal;HPM_P1;HPM_P2
2022/09/08 00:00:47;;;;;;;36.65;26.90;;;;;;;;;;5104338;28;20020;-78
2022/09/08 00:03:15;;;;;;;32.92;25.42;;;;;;;;;;5074004;28;20017;-78
2022/09/08 00:05:44;;;;;;;30.02;23.05;;;;;;;;;;5106898;28;20099;-78
2022/09/08 00:08:11;;;;;;;36.55;24.98;;;;;;;;;;5074097;28;20048;-79
2022/09/08 00:10:38;;;;;;;46.33;29.05;;;;;;;;;;5088291;28;20023;-79
2022/09/08 00:13:07;;;;;;;105.85;45.28;;;;;;;;;;5092355;28;20020;-78
2022/09/08 00:15:34;;;;;;;84.32;42.70;;;;;;;;;;5106478;28;20080;-78
2022/09/08 00:18:00;;;;;;;54.35;30.10;;;;;;;;;;5102327;28;20024;-78
2022/09/08 00:20:26;;;;;;;42.90;26.30;;;;;;;;;;5106154;28;20023;-77
2022/09/08 00:22:52;;;;;;;36.85;26.45;;;;;;;;;;5114872;27;20027;-79
2022/09/08 00:25:18;;;;;;;93.57;47.85;;;;;;;;;;5081007;28;20024;-78
2022/09/08 00:27:44;;;;;;;94.55;46.25;;;;;;;;;;5087905;28;20019;-78
2022/09/08 00:30:10;;;;;;;78.53;38.85;;;;;;;;;;5073950;28;20024;-77
2022/09/08 00:32:36;;;;;;;41.78;28.00;;;;;;;;;;5092121;28;20043;-78
2022/09/08 00:35:02;;;;;;;41.28;28.20;;;;;;;;;;5106071;28;20471;-77
2022/09/08 00:37:30;;;;;;;37.80;27.42;;;;;;;;;;5119158;27;20047;-76
2022/09/08 00:39:56;;;;;;;35.33;27.00;;;;;;;;;;5076017;28;20047;-76
2022/09/08 00:42:25;;;;;;;40.28;25.02;;;;;;;;;;5107651;28;20384;-77
2022/09/08 00:44:53;;;;;;;157.93;71.20;;;;;;;;;;5092038;28;20525;-76
2022/09/08 00:47:31;;;;;;;133.25;61.75;;;;;;;;;;5107278;28;20016;-76
2022/09/08 00:50:03;;;;;;;82.65;41.22;;;;;;;;;;5091424;28;20028;-77
2022/09/08 00:52:34;;;;;;;65.30;35.30;;;;;;;;;;5097928;28;20479;-76
2022/09/08 00:55:00;;;;;;;38.97;27.65;;;;;;;;;;5102088;28;20123;-80
2022/09/08 00:57:26;;;;;;;36.67;25.80;;;;;;;;;;5065114;28;20030;-78
2022/09/08 00:59:53;;;;;;;32.60;23.48;;;;;;;;;;5107159;28;20027;-77
2022/09/08 01:02:25;;;;;;;27.70;19.85;;;;;;;;;;5091817;28;20012;-80
2022/09/08 01:04:55;;;;;;;23.40;19.75;;;;;;;;;;5107201;28;20024;-76
2022/09/08 01:13:05;;;;;;;21.58;19.25;;;;;;;;;;5111735;28;20081;-78
2022/09/08 01:15:31;;;;;;;24.98;19.83;;;;;;;;;;5053373;28;20478;-76
2022/09/08 01:17:58;;;;;;;26.15;18.77;;;;;;;;;;5084242;28;20044;-77
2022/09/08 01:20:33;;;;;;;21.08;17.92;;;;;;;;;;5081681;28;20030;-77
2022/09/08 01:22:59;;;;;;;23.65;19.00;;;;;;;;;;5089246;28;20088;-78
2022/09/08 01:25:27;;;;;;;25.70;19.80;;;;;;;;;;5079022;28;21257;-78
2022/09/08 01:27:57;;;;;;;38.90;20.95;;;;;;;;;;5105859;28;20044;-78
2022/09/08 01:30:23;;;;;;;28.00;20.73;;;;;;;;;;5095393;28;20020;-77
2022/09/08 01:32:49;;;;;;;26.10;21.00;;;;;;;;;;5126013;27;20531;-75
2022/09/08 01:35:31;;;;;;;28.13;22.15;;;;;;;;;;5115287;28;20090;-76
2022/09/08 01:37:57;;;;;;;68.32;34.40;;;;;;;;;;5115118;28;20058;-75
2022/09/08 01:40:24;;;;;;;56.53;29.55;;;;;;;;;;5089675;28;20462;-77
2022/09/08 01:42:50;;;;;;;43.15;23.95;;;;;;;;;;5094375;28;20364;-76
2022/09/08 01:45:16;;;;;;;30.13;22.60;;;;;;;;;;5103351;28;20015;-76
2022/09/08 01:47:42;;;;;;;29.05;22.52;;;;;;;;;;5081200;28;20428;-77
2022/09/08 01:50:09;;;;;;;36.05;22.92;;;;;;;;;;5095097;28;20024;-76
2022/09/08 01:52:35;;;;;;;30.95;20.73;;;;;;;;;;5115525;28;20020;-76
2022/09/08 01:55:01;;;;;;;36.72;22.58;;;;;;;;;;5109109;28;20032;-76
2022/09/08 01:57:27;;;;;;;31.75;21.50;;;;;;;;;;5095118;28;20035;-75
2022/09/08 01:59:54;;;;;;;29.00;21.33;;;;;;;;;;5076128;28;20052;-76
2022/09/08 02:02:20;;;;;;;25.25;21.02;;;;;;;;;;5103210;28;20385;-75
2022/09/08 02:04:46;;;;;;;28.38;21.50;;;;;;;;;;5081573;28;20530;-77
2022/09/08 02:07:12;;;;;;;26.85;20.45;;;;;;;;;;5094365;28;20016;-76
2022/09/08 02:09:38;;;;;;;28.83;19.50;;;;;;;;;;5076365;28;20368;-77
2022/09/08 02:12:05;;;;;;;27.38;20.13;;;;;;;;;;5108996;28;20110;-76
2022/09/08 02:14:31;;;;;;;26.17;19.58;;;;;;;;;;5094479;28;20379;-76
2022/09/08 02:16:57;;;;;;;24.95;18.83;;;;;;;;;;5093225;28;20031;-76
2022/09/08 02:19:23;;;;;;;22.75;18.08;;;;;;;;;;5114787;28;20060;-76
2022/09/08 02:21:49;;;;;;;30.08;20.25;;;;;;;;;;5099247;28;20016;-76
2022/09/08 02:24:15;;;;;;;26.33;20.27;;;;;;;;;;5094216;28;20024;-76
2022/09/08 02:26:41;;;;;;;29.45;22.85;;;;;;;;;;5123122;27;20493;-78
2022/09/08 02:29:10;;;;;;;30.35;21.20;;;;;;;;;;5086281;28;20024;-79
2022/09/08 02:31:36;;;;;;;30.83;21.75;;;;;;;;;;5098709;28;20020;-76
2022/09/08 02:34:04;;;;;;;26.00;21.40;;;;;;;;;;5095854;28;20114;-75
2022/09/08 02:36:30;;;;;;;29.00;22.63;;;;;;;;;;5077897;28;20391;-75
2022/09/08 02:38:56;;;;;;;24.67;22.05;;;;;;;;;;5093744;28;20044;-76
2022/09/08 02:41:23;;;;;;;24.52;21.85;;;;;;;;;;5093971;28;20020;-75
2022/09/08 02:43:49;;;;;;;29.13;22.55;;;;;;;;;;5101024;28;20015;-75
2022/09/08 02:46:15;;;;;;;27.83;21.52;;;;;;;;;;5100284;28;20055;-75
2022/09/08 02:48:41;;;;;;;25.67;21.63;;;;;;;;;;5093181;28;20047;-75
2022/09/08 02:51:08;;;;;;;34.05;22.63;;;;;;;;;;5079374;28;20177;-77
2022/09/08 02:53:35;;;;;;;33.95;29.88;;;;;;;;;;5085217;28;20103;-74
2022/09/08 02:56:01;;;;;;;28.02;23.33;;;;;;;;;;5113323;27;20036;-76
2022/09/08 02:58:27;;;;;;;26.52;22.50;;;;;;;;;;5103943;28;20050;-75
2022/09/08 03:00:54;;;;;;;29.23;21.80;;;;;;;;;;5075432;28;20028;-75
2022/09/08 03:03:22;;;;;;;26.05;21.08;;;;;;;;;;5109037;28;20061;-74
2022/09/08 03:05:48;;;;;;;34.00;23.73;;;;;;;;;;5084071;28;20374;-75
2022/09/08 03:08:14;;;;;;;28.08;22.52;;;;;;;;;;5106666;28;20024;-75
2022/09/08 03:10:41;;;;;;;31.38;22.65;;;;;;;;;;5093850;28;21083;-75
2022/09/08 03:13:07;;;;;;;31.05;24.20;;;;;;;;;;5109047;28;20044;-76
2022/09/08 03:15:33;;;;;;;32.03;22.02;;;;;;;;;;5108867;28;20055;-75
2022/09/08 03:17:59;;;;;;;29.95;22.02;;;;;;;;;;5092626;28;20035;-74
2022/09/08 03:20:26;;;;;;;27.20;20.90;;;;;;;;;;5093093;28;20405;-78
2022/09/08 03:22:53;;;;;;;30.23;21.83;;;;;;;;;;5108614;28;20382;-77
2022/09/08 03:25:19;;;;;;;30.00;22.15;;;;;;;;;;5106241;28;20051;-75
2022/09/08 03:27:45;;;;;;;27.00;24.02;;;;;;;;;;5093074;28;20051;-75
2022/09/08 03:30:13;;;;;;;28.67;24.95;;;;;;;;;;5100406;28;20382;-75
2022/09/08 03:32:41;;;;;;;23.35;19.27;;;;;;;;;;5099824;28;20174;-75
2022/09/08 03:35:08;;;;;;;28.85;20.17;;;;;;;;;;5094103;28;20102;-76
2022/09/08 03:37:38;;;;;;;30.00;22.35;;;;;;;;;;5092504;28;20483;-74
2022/09/08 03:40:05;;;;;;;32.05;23.13;;;;;;;;;;5112821;27;20432;-77
2022/09/08 03:42:36;;;;;;;34.50;21.77;;;;;;;;;;5101641;28;20020;-75
2022/09/08 03:45:07;;;;;;;27.88;22.60;;;;;;;;;;5108028;28;20089;-74
2022/09/08 03:47:33;;;;;;;27.98;21.45;;;;;;;;;;5092130;28;20020;-75
2022/09/08 03:49:59;;;;;;;29.38;21.25;;;;;;;;;;5108616;28;20019;-75
2022/09/08 03:52:27;;;;;;;32.55;22.95;;;;;;;;;;5086116;28;20044;-76
2022/09/08 03:54:53;;;;;;;41.63;26.02;;;;;;;;;;5093621;28;20036;-75
2022/09/08 03:57:24;;;;;;;60.38;31.10;;;;;;;;;;5106690;28;20038;-75
2022/09/08 03:59:51;;;;;;;57.95;29.15;;;;;;;;;;5105629;28;20026;-74
2022/09/08 04:02:18;;;;;;;50.55;30.90;;;;;;;;;;5087872;28;20020;-75
2022/09/08 04:04:47;;;;;;;34.60;24.65;;;;;;;;;;5095752;28;20024;-76
2022/09/08 04:07:13;;;;;;;34.95;25.23;;;;;;;;;;5099300;28;20039;-77
2022/09/08 04:09:41;;;;;;;35.33;24.75;;;;;;;;;;5083977;28;20055;-76
2022/09/08 04:12:07;;;;;;;49.17;26.77;;;;;;;;;;5102892;28;20028;-75
2022/09/08 04:14:33;;;;;;;30.67;24.17;;;;;;;;;;5073889;28;20031;-75
2022/09/08 04:17:00;;;;;;;26.58;23.00;;;;;;;;;;5092893;28;20063;-77
2022/09/08 04:19:26;;;;;;;35.50;24.75;;;;;;;;;;5099819;28;20023;-74
2022/09/08 04:21:52;;;;;;;28.60;23.00;;;;;;;;;;5112378;28;20024;-74
2022/09/08 04:24:19;;;;;;;38.05;30.70;;;;;;;;;;5091816;28;20020;-74
2022/09/08 04:26:45;;;;;;;35.30;24.88;;;;;;;;;;5114512;27;20015;-74
2022/09/08 04:29:11;;;;;;;42.72;28.10;;;;;;;;;;5082362;28;20111;-74
2022/09/08 04:31:38;;;;;;;32.50;28.15;;;;;;;;;;5091905;28;20012;-74
2022/09/08 04:34:04;;;;;;;34.22;24.15;;;;;;;;;;5103217;28;20026;-75
2022/09/08 04:36:31;;;;;;;28.80;22.60;;;;;;;;;;5090060;28;20028;-75
2022/09/08 04:38:58;;;;;;;30.48;24.10;;;;;;;;;;5091596;28;20105;-75
2022/09/08 04:41:24;;;;;;;44.38;30.88;;;;;;;;;;5072283;28;20028;-74
2022/09/08 04:43:51;;;;;;;59.05;36.55;;;;;;;;;;5072771;28;20043;-75
2022/09/08 04:46:18;;;;;;;58.33;32.15;;;;;;;;;;5063154;28;20020;-75
2022/09/08 04:48:44;;;;;;;58.35;31.52;;;;;;;;;;5089101;28;20013;-74
2022/09/08 04:51:12;;;;;;;74.20;35.30;;;;;;;;;;5118061;28;20026;-74
2022/09/08 04:53:38;;;;;;;40.40;25.50;;;;;;;;;;5079332;28;20012;-75
2022/09/08 04:56:05;;;;;;;35.40;24.02;;;;;;;;;;5095620;28;20169;-74
2022/09/08 04:58:32;;;;;;;31.02;22.92;;;;;;;;;;5096406;28;20020;-75
2022/09/08 05:01:04;;;;;;;31.73;21.95;;;;;;;;;;5090168;28;20020;-73
2022/09/08 05:03:30;;;;;;;26.95;22.58;;;;;;;;;;5095133;28;20035;-75
2022/09/08 05:05:56;;;;;;;38.30;23.35;;;;;;;;;;5117304;27;20058;-75
2022/09/08 05:08:22;;;;;;;26.85;21.50;;;;;;;;;;5103042;28;20019;-75
2022/09/08 05:10:49;;;;;;;32.45;21.92;;;;;;;;;;5095229;28;20066;-74
2022/09/08 05:13:15;;;;;;;32.47;23.40;;;;;;;;;;5129443;27;20019;-74
2022/09/08 05:15:41;;;;;;;26.55;23.17;;;;;;;;;;5114785;28;20039;-75
2022/09/08 05:18:07;;;;;;;38.28;24.10;;;;;;;;;;5106137;28;20117;-76
2022/09/08 05:20:33;;;;;;;30.33;22.52;;;;;;;;;;5106013;28;20024;-74
2022/09/08 05:22:59;;;;;;;36.53;27.38;;;;;;;;;;5094607;28;20099;-75
2022/09/08 05:25:25;;;;;;;36.13;21.95;;;;;;;;;;5110406;28;20027;-75
2022/09/08 05:27:51;;;;;;;27.90;21.30;;;;;;;;;;5080171;28;20111;-74
2022/09/08 05:30:17;;;;;;;25.90;21.08;;;;;;;;;;5102413;28;20034;-75
2022/09/08 05:32:43;;;;;;;27.10;20.45;;;;;;;;;;5079997;28;20086;-77
2022/09/08 05:35:09;;;;;;;29.70;20.80;;;;;;;;;;5121621;27;20121;-75
2022/09/08 05:37:36;;;;;;;33.70;19.45;;;;;;;;;;5114096;28;20051;-73
2022/09/08 05:40:02;;;;;;;36.72;28.00;;;;;;;;;;5101122;28;20020;-75
2022/09/08 05:42:28;;;;;;;28.73;20.67;;;;;;;;;;5098634;28;20028;-74
2022/09/08 05:44:54;;;;;;;40.45;22.50;;;;;;;;;;5106879;28;20012;-75
2022/09/08 05:47:20;;;;;;;29.27;20.27;;;;;;;;;;5109450;28;20069;-76
2022/09/08 05:49:46;;;;;;;27.13;21.00;;;;;;;;;;5113276;28;20020;-75
2022/09/08 05:52:13;;;;;;;37.95;23.73;;;;;;;;;;5096446;28;20099;-77
2022/09/08 05:54:39;;;;;;;27.38;21.75;;;;;;;;;;5098768;28;20440;-75
2022/09/08 05:57:05;;;;;;;31.77;22.98;;;;;;;;;;5111017;28;20044;-75
2022/09/08 05:59:31;;;;;;;36.15;23.88;;;;;;;;;;5085781;28;20474;-76
2022/09/08 06:01:57;;;;;;;34.63;25.40;;;;;;;;;;5100208;28;20379;-80
2022/09/08 06:04:23;;;;;;;37.78;26.80;;;;;;;;;;5093160;28;20024;-80
2022/09/08 06:06:50;;;;;;;30.55;24.13;;;;;;;;;;5076837;28;20027;-78
2022/09/08 06:09:16;;;;;;;46.03;31.00;;;;;;;;;;5080779;28;20058;-80
2022/09/08 06:11:43;;;;;;;35.80;26.02;;;;;;;;;;5103501;28;20024;-77
2022/09/08 06:14:10;;;;;;;31.85;25.75;;;;;;;;;;5122855;27;20020;-79
2022/09/08 06:16:36;;;;;;;42.92;26.40;;;;;;;;;;5111517;27;20027;-77
2022/09/08 06:19:02;;;;;;;36.85;26.88;;;;;;;;;;5080676;28;20055;-76
2022/09/08 06:21:30;;;;;;;42.53;25.60;;;;;;;;;;5112203;27;20023;-76
2022/09/08 06:24:01;;;;;;;39.90;28.52;;;;;;;;;;5109526;28;20016;-76
2022/09/08 06:26:42;;;;;;;45.33;27.02;;;;;;;;;;5107871;28;20016;-78
2022/09/08 06:29:15;;;;;;;35.15;24.50;;;;;;;;;;5108551;28;20027;-76
2022/09/08 06:32:04;;;;;;;38.22;25.65;;;;;;;;;;5092816;28;20065;-80
2022/09/08 06:34:36;;;;;;;30.70;25.55;;;;;;;;;;5067398;28;20560;-79
2022/09/08 06:37:05;;;;;;;41.90;28.10;;;;;;;;;;5092378;28;20039;-79
2022/09/08 06:39:40;;;;;;;32.58;23.60;;;;;;;;;;5055808;28;20052;-78
2022/09/08 06:42:11;;;;;;;38.25;24.63;;;;;;;;;;5054352;28;20047;-79
2022/09/08 06:44:38;;;;;;;27.80;22.05;;;;;;;;;;5062445;28;20111;-78
2022/09/08 06:47:09;;;;;;;30.73;22.95;;;;;;;;;;5056381;28;20017;-77
2022/09/08 06:49:37;;;;;;;36.88;25.20;;;;;;;;;;5060333;28;20391;-77
2022/09/08 06:52:28;;;;;;;35.17;22.75;;;;;;;;;;5061891;28;20056;-77
2022/09/08 06:55:13;;;;;;;22.13;19.73;;;;;;;;;;5045049;28;20070;-76
2022/09/08 06:57:39;;;;;;;26.58;19.90;;;;;;;;;;5076443;28;20025;-78
2022/09/08 07:00:08;;;;;;;21.95;18.70;;;;;;;;;;5058815;28;20043;-76
2022/09/08 07:02:44;;;;;;;30.23;20.17;;;;;;;;;;5051403;28;20036;-78
2022/09/08 07:05:29;;;;;;;26.40;19.13;;;;;;;;;;5065553;28;20447;-77
2022/09/08 07:08:05;;;;;;;21.70;17.95;;;;;;;;;;5041083;28;20083;-79
2022/09/08 07:10:31;;;;;;;21.90;16.88;;;;;;;;;;5066831;28;20029;-79
2022/09/08 07:12:58;;;;;;;19.23;15.77;;;;;;;;;;5052231;28;20379;-80
2022/09/08 07:15:44;;;;;;;24.33;16.65;;;;;;;;;;5051848;28;20364;-77
2022/09/08 07:18:26;;;;;;;24.88;17.30;;;;;;;;;;5060542;28;20074;-77
2022/09/08 07:21:04;;;;;;;25.73;17.67;;;;;;;;;;5067420;28;20111;-78
2022/09/08 07:23:33;;;;;;;35.10;17.42;;;;;;;;;;5052617;28;20035;-76
2022/09/08 07:26:16;;;;;;;22.98;18.30;;;;;;;;;;5051011;28;20013;-78
2022/09/08 07:28:44;;;;;;;25.20;18.13;;;;;;;;;;5051246;28;20131;-79
2022/09/08 07:31:21;;;;;;;32.20;18.98;;;;;;;;;;5046876;28;20023;-76
2022/09/08 07:33:50;;;;;;;30.95;19.83;;;;;;;;;;5042568;28;20120;-77
2022/09/08 07:36:22;;;;;;;26.25;18.42;;;;;;;;;;5045928;28;20029;-76
2022/09/08 07:38:53;;;;;;;32.92;18.98;;;;;;;;;;5072164;28;20043;-76
2022/09/08 07:41:21;;;;;;;26.33;18.15;;;;;;;;;;5108148;28;20054;-75
2022/09/08 07:43:55;;;;;;;22.77;15.65;;;;;;;;;;5092389;28;20020;-77
2022/09/08 07:46:35;;;;;;;22.70;16.98;;;;;;;;;;5107756;28;20020;-77
2022/09/08 07:49:14;;;;;;;25.55;15.77;;;;;;;;;;5096204;28;20448;-76
2022/09/08 07:51:46;;;;;;;23.83;16.55;;;;;;;;;;5122347;27;20023;-76
2022/09/08 07:54:31;;;;;;;20.65;15.35;;;;;;;;;;5107839;28;20047;-77
2022/09/08 07:57:03;;;;;;;33.13;16.75;;;;;;;;;;5114372;27;20035;-75
2022/09/08 07:59:48;;;;;;;30.92;17.90;;;;;;;;;;5096527;28;20020;-76
2022/09/08 08:02:26;;;;;;;20.48;16.40;;;;;;;;;;5088535;28;20024;-78
2022/09/08 08:05:01;;;;;;;33.92;19.60;;;;;;;;;;5073458;28;20028;-78
2022/09/08 08:07:31;;;;;;;25.27;17.08;;;;;;;;;;5087917;28;20069;-77
2022/09/08 08:10:16;;;;;;;21.75;15.85;;;;;;;;;;5095013;28;20028;-80
2022/09/08 08:12:54;;;;;;;16.80;13.88;;;;;;;;;;5061295;28;20043;-78
2022/09/08 08:15:22;;;;;;;21.05;15.80;;;;;;;;;;5107659;28;20043;-77
2022/09/08 08:17:48;;;;;;;25.20;16.63;;;;;;;;;;5107583;28;20027;-77
2022/09/08 08:20:32;;;;;;;17.65;15.65;;;;;;;;;;5067542;28;20085;-78
2022/09/08 08:23:17;;;;;;;22.30;16.05;;;;;;;;;;5088526;28;20032;-75
2022/09/08 08:25:49;;;;;;;25.75;15.45;;;;;;;;;;5101909;28;20080;-76
2022/09/08 08:28:20;;;;;;;21.60;14.57;;;;;;;;;;5121028;27;20031;-78
2022/09/08 08:31:10;;;;;;;24.52;15.15;;;;;;;;;;5107091;28;20501;-75
2022/09/08 08:33:42;;;;;;;21.10;14.60;;;;;;;;;;5107327;28;20031;-77
2022/09/08 08:36:12;;;;;;;25.42;15.07;;;;;;;;;;5089448;28;20032;-76
2022/09/08 08:38:41;;;;;;;19.02;15.43;;;;;;;;;;5095943;28;20051;-76
2022/09/08 08:41:20;;;;;;;21.35;15.23;;;;;;;;;;5075182;28;20020;-78
2022/09/08 08:44:11;;;;;;;22.73;14.93;;;;;;;;;;5098211;28;20035;-76
2022/09/08 08:46:37;;;;;;;20.75;14.43;;;;;;;;;;5093573;28;20043;-77
2022/09/08 08:49:25;;;;;;;20.00;14.32;;;;;;;;;;5082269;28;20020;-76
2022/09/08 08:51:58;;;;;;;20.38;14.63;;;;;;;;;;5111919;28;20070;-75
2022/09/08 08:54:44;;;;;;;18.35;13.65;;;;;;;;;;5091664;28;20057;-75
2022/09/08 08:57:10;;;;;;;23.73;15.13;;;;;;;;;;5081413;28;20111;-79
2022/09/08 08:59:42;;;;;;;19.52;14.20;;;;;;;;;;5088724;28;20062;-76
2022/09/08 09:02:23;;;;;;;21.75;14.73;;;;;;;;;;5090045;28;20028;-76
2022/09/08 09:05:07;;;;;;;19.40;13.80;;;;;;;;;;5065232;28;20016;-79
2022/09/08 09:07:36;;;;;;;27.58;15.13;;;;;;;;;;5091264;28;20073;-78
2022/09/08 09:10:21;;;;;;;18.58;15.38;;;;;;;;;;5073187;28;20016;-76
2022/09/08 09:12:47;;;;;;;26.05;15.07;;;;;;;;;;5092954;28;20048;-79
2022/09/08 09:15:32;;;;;;;21.10;17.42;;;;;;;;;;5085077;28;20515;-76
2022/09/08 09:18:05;;;;;;;20.92;16.15;;;;;;;;;;5092943;28;20040;-77
2022/09/08 09:20:50;;;;;;;23.50;15.63;;;;;;;;;;5091042;28;20103;-75
2022/09/08 09:23:23;;;;;;;18.73;14.63;;;;;;;;;;5073336;28;20024;-78
2022/09/08 09:25:59;;;;;;;15.67;13.97;;;;;;;;;;5104978;28;20066;-77
2022/09/08 09:28:44;;;;;;;17.95;12.85;;;;;;;;;;5081320;28;20024;-75
2022/09/08 09:31:26;;;;;;;14.93;13.23;;;;;;;;;;5096253;28;20036;-78
2022/09/08 09:34:20;;;;;;;22.63;13.37;;;;;;;;;;5071110;28;20043;-78
2022/09/08 09:36:56;;;;;;;18.13;12.10;;;;;;;;;;5111894;28;20035;-76
2022/09/08 09:39:45;;;;;;;17.52;11.70;;;;;;;;;;5084202;28;20455;-77
2022/09/08 09:42:31;;;;;;;17.00;12.00;;;;;;;;;;5067734;27;20032;-77
2022/09/08 09:45:16;;;;;;;13.10;10.60;;;;;;;;;;5110079;27;20031;-77
2022/09/08 09:47:43;;;;;;;22.38;11.55;;;;;;;;;;5094941;28;20383;-75
2022/09/08 09:50:28;;;;;;;18.25;10.73;;;;;;;;;;5093919;28;20020;-76
2022/09/08 09:53:13;;;;;;;14.38;10.35;;;;;;;;;;5076287;28;20024;-78
2022/09/08 09:55:55;;;;;;;16.60;10.20;;;;;;;;;;5112377;28;20471;-77
2022/09/08 09:58:37;;;;;;;14.45;11.05;;;;;;;;;;5098261;28;20120;-77
2022/09/08 10:01:04;;;;;;;18.95;10.48;;;;;;;;;;5080533;28;20036;-77
2022/09/08 10:03:30;;;;;;;20.58;11.02;;;;;;;;;;5075787;28;20609;-76
2022/09/08 10:06:22;;;;;;;15.23;9.20;;;;;;;;;;5095022;28;20475;-77
2022/09/08 10:09:07;;;;;;;16.08;10.60;;;;;;;;;;5112175;27;20073;-77
2022/09/08 10:11:35;;;;;;;17.88;9.95;;;;;;;;;;5100850;28;20111;-77
2022/09/08 10:14:08;;;;;;;18.88;10.40;;;;;;;;;;5111884;28;20531;-77
2022/09/08 10:16:34;;;;;;;21.03;9.90;;;;;;;;;;5090031;28;20111;-77
2022/09/08 10:19:03;;;;;;;16.52;10.02;;;;;;;;;;5103295;28;20054;-76
2022/09/08 10:21:38;;;;;;;11.20;9.60;;;;;;;;;;5081588;28;20024;-78
2022/09/08 10:24:16;;;;;;;11.18;8.60;;;;;;;;;;5086077;28;20027;-78
2022/09/08 10:26:51;;;;;;;15.07;9.60;;;;;;;;;;5093464;28;20520;-78
2022/09/08 10:29:17;;;;;;;18.85;10.25;;;;;;;;;;5109423;28;20578;-79
2022/09/08 10:32:02;;;;;;;12.18;8.10;;;;;;;;;;5118117;27;20060;-78
2022/09/08 10:34:31;;;;;;;20.63;9.40;;;;;;;;;;5093597;28;20016;-79
2022/09/08 10:37:03;;;;;;;15.05;9.43;;;;;;;;;;5109172;28;20165;-78
2022/09/08 10:39:32;;;;;;;10.87;8.03;;;;;;;;;;5097193;28;20058;-78
2022/09/08 10:42:25;;;;;;;15.57;8.15;;;;;;;;;;5109179;28;20024;-75
2022/09/08 10:45:10;;;;;;;16.95;9.15;;;;;;;;;;5108950;28;20020;-78
2022/09/08 10:47:39;;;;;;;16.92;8.52;;;;;;;;;;5102049;28;20356;-79
2022/09/08 10:50:07;;;;;;;13.98;9.20;;;;;;;;;;5074647;28;20028;-78
2022/09/08 10:52:52;;;;;;;20.15;8.80;;;;;;;;;;5108763;28;20035;-75
2022/09/08 10:55:28;;;;;;;17.75;10.20;;;;;;;;;;5123174;27;20047;-76
2022/09/08 10:57:57;;;;;;;19.80;10.05;;;;;;;;;;5095782;28;20046;-77
2022/09/08 11:00:23;;;;;;;19.75;9.20;;;;;;;;;;5107841;28;20024;-77
2022/09/08 11:02:55;;;;;;;16.92;9.25;;;;;;;;;;5093069;28;20016;-76
2022/09/08 11:05:27;;;;;;;15.65;7.88;;;;;;;;;;5108600;28;20502;-73
2022/09/08 11:08:13;;;;;;;16.80;8.45;;;;;;;;;;5093003;28;20073;-78
2022/09/08 11:10:58;;;;;;;16.63;8.38;;;;;;;;;;5093101;28;20147;-80
2022/09/08 11:13:42;;;;;;;12.00;8.70;;;;;;;;;;5077807;28;20461;-77
2022/09/08 11:16:15;;;;;;;14.40;7.80;;;;;;;;;;5092014;28;20044;-76
2022/09/08 11:18:44;;;;;;;19.83;9.10;;;;;;;;;;5077040;28;20023;-78
2022/09/08 11:21:18;;;;;;;20.75;8.38;;;;;;;;;;5105201;28;20054;-77
2022/09/08 11:23:44;;;;;;;12.98;8.32;;;;;;;;;;5118348;27;20071;-77
2022/09/08 11:26:28;;;;;;;29.13;18.02;;;;;;;;;;5102558;28;20495;-78
2022/09/08 11:29:10;;;;;;;31.30;21.50;;;;;;;;;;5108130;28;20046;-75
2022/09/08 11:31:39;;;;;;;30.45;23.27;;;;;;;;;;5107850;28;20115;-80
2022/09/08 11:34:24;;;;;;;25.33;18.40;;;;;;;;;;5073968;28;20168;-79
2022/09/08 11:37:01;;;;;;;22.10;11.90;;;;;;;;;;5092551;28;20417;-79
2022/09/08 11:39:52;;;;;;;17.45;12.13;;;;;;;;;;5092017;28;20048;-77
2022/09/08 11:42:24;;;;;;;14.43;8.98;;;;;;;;;;5072146;28;20194;-77
2022/09/08 11:44:51;;;;;;;22.50;17.55;;;;;;;;;;5108953;28;20059;-79
2022/09/08 11:47:37;;;;;;;39.03;32.60;;;;;;;;;;5107396;27;20065;-77
2022/09/08 11:50:03;;;;;;;16.75;9.40;;;;;;;;;;5092485;28;20150;-78
2022/09/08 11:52:29;;;;;;;22.50;13.10;;;;;;;;;;5095664;28;20028;-77
2022/09/08 11:55:08;;;;;;;14.63;11.32;;;;;;;;;;5077614;28;20028;-77
2022/09/08 11:57:53;;;;;;;15.85;9.80;;;;;;;;;;5114313;27;20162;-75
2022/09/08 12:00:51;;;;;;;15.82;10.20;;;;;;;;;;5099486;28;20020;-76
2022/09/08 12:03:17;;;;;;;17.75;12.77;;;;;;;;;;5062468;28;20395;-76
2022/09/08 12:06:10;;;;;;;12.25;9.88;;;;;;;;;;5080442;28;20020;-77
2022/09/08 12:08:54;;;;;;;14.55;10.50;;;;;;;;;;5096281;28;20077;-78
2022/09/08 12:11:39;;;;;;;16.17;9.93;;;;;;;;;;5091808;28;20022;-77
2022/09/08 12:14:30;;;;;;;13.30;11.35;;;;;;;;;;5079128;28;20055;-78
2022/09/08 12:17:17;;;;;;;13.18;7.88;;;;;;;;;;5109499;27;20523;-79
2022/09/08 12:19:57;;;;;;;13.90;11.60;;;;;;;;;;5050096;28;20032;-77
2022/09/08 12:22:32;;;;;;;16.60;13.18;;;;;;;;;;5091310;28;20035;-78
2022/09/08 12:25:17;;;;;;;17.58;11.50;;;;;;;;;;5073461;28;20031;-76
2022/09/08 12:27:55;;;;;;;17.83;8.07;;;;;;;;;;5083046;28;20024;-75
2022/09/08 12:30:22;;;;;;;17.02;9.30;;;;;;;;;;5111978;28;20028;-77
2022/09/08 12:32:51;;;;;;;10.45;8.23;;;;;;;;;;5075577;28;20024;-78
2022/09/08 12:35:24;;;;;;;16.15;12.15;;;;;;;;;;5072166;28;20428;-77
2022/09/08 12:37:57;;;;;;;28.83;25.88;;;;;;;;;;5085785;28;20143;-76
2022/09/08 12:40:23;;;;;;;;;;;;;;;;;;5076819;28;20039;-76
2022/09/08 12:43:00;;;;;;;10.65;8.90;;;;;;;;;;5091535;28;19994;-78
2022/09/08 12:45:38;;;;;;;11.52;6.30;;;;;;;;;;5083486;28;20391;-75
2022/09/08 12:48:10;;;;;;;19.55;16.35;;;;;;;;;;5089797;28;20023;-76
2022/09/08 12:50:36;;;;;;;;;;;;;;;;;;5091358;28;20020;-78
2022/09/08 12:53:17;;;;;;;8.45;6.68;;;;;;;;;;5097715;28;19911;-76
2022/09/08 12:55:51;;;;;;;21.73;8.23;;;;;;;;;;5081735;28;20038;-77
2022/09/08 12:58:32;;;;;;;11.63;6.82;;;;;;;;;;5076738;28;20017;-76
2022/09/08 13:01:04;;;;;;;15.50;6.80;;;;;;;;;;5106381;28;20441;-78
2022/09/08 13:03:30;;;;;;;;;;;;;;;;;;5091315;28;20081;-76
2022/09/08 13:06:11;;;;;;;10.68;8.32;;;;;;;;;;5090604;28;19904;-78
2022/09/08 13:08:52;;;;;;;17.60;8.20;;;;;;;;;;5090174;28;20016;-77
2022/09/08 13:11:21;;;;;;;16.10;7.53;;;;;;;;;;5092649;28;20028;-76
2022/09/08 13:13:48;;;;;;;12.70;6.22;;;;;;;;;;5105332;28;20016;-78
2022/09/08 13:16:22;;;;;;;10.55;6.28;;;;;;;;;;5094909;28;20119;-77
2022/09/08 13:18:51;;;;;;;14.57;8.05;;;;;;;;;;5108849;28;20482;-76
2022/09/08 13:21:35;;;;;;;10.88;5.10;;;;;;;;;;5096828;28;20020;-76
2022/09/08 13:24:11;;;;;;;10.77;7.53;;;;;;;;;;5112726;28;20028;-77
2022/09/08 13:26:42;;;;;;;10.63;7.07;;;;;;;;;;5090482;28;20044;-76
2022/09/08 13:29:15;;;;;;;15.82;8.00;;;;;;;;;;5109379;27;20032;-77
2022/09/08 13:31:47;;;;;;;19.42;11.75;;;;;;;;;;5117988;27;20111;-77
2022/09/08 13:34:19;;;;;;;22.40;16.27;;;;;;;;;;5096890;28;20023;-76
2022/09/08 13:36:45;;;;;;;11.10;9.07;;;;;;;;;;5091624;28;20032;-77
2022/09/08 13:39:17;;;;;;;16.73;8.38;;;;;;;;;;5106423;28;20044;-77
2022/09/08 13:41:49;;;;;;;17.58;10.52;;;;;;;;;;5076174;28;20035;-76
2022/09/08 13:44:15;;;;;;;;;;;;;;;;;;5076771;28;20028;-78
2022/09/08 13:46:59;;;;;;;15.30;12.57;;;;;;;;;;5094305;28;19915;-77
2022/09/08 13:49:25;;;;;;;11.00;8.88;;;;;;;;;;5080913;28;20028;-78
2022/09/08 13:52:03;;;;;;;11.73;9.93;;;;;;;;;;5102618;28;20533;-77
2022/09/08 13:54:32;;;;;;;21.65;14.32;;;;;;;;;;5100648;28;20024;-76
2022/09/08 13:57:17;;;;;;;23.27;18.95;;;;;;;;;;5103539;28;20039;-76
2022/09/08 13:59:43;;;;;;;16.17;7.90;;;;;;;;;;5097679;28;20015;-76
2022/09/08 14:02:21;;;;;;;18.00;9.90;;;;;;;;;;5098366;28;20062;-75
2022/09/08 14:04:57;;;;;;;14.05;7.40;;;;;;;;;;5109595;28;20051;-76
2022/09/08 14:07:25;;;;;;;11.80;8.05;;;;;;;;;;5108797;27;20020;-76
2022/09/08 14:10:07;;;;;;;11.77;6.82;;;;;;;;;;5109816;28;20077;-76
2022/09/08 14:12:33;;;;;;;;;;;;;;;;;;5094242;28;20077;-76
2022/09/08 14:15:23;;;;;;;9.52;7.40;;;;;;;;;;5093644;28;19908;-76
2022/09/08 14:18:02;;;;;;;10.57;8.63;;;;;;;;;;5071660;28;20036;-75
2022/09/08 14:20:30;;;;;;;16.38;8.18;;;;;;;;;;5109659;28;20050;-76
2022/09/08 14:23:05;;;;;;;15.60;10.65;;;;;;;;;;5079828;28;20074;-75
2022/09/08 14:25:36;;;;;;;10.68;7.38;;;;;;;;;;5093075;28;20024;-76
2022/09/08 14:28:08;;;;;;;13.77;6.97;;;;;;;;;;5110020;28;20021;-77
2022/09/08 14:30:34;;;;;;;18.95;13.98;;;;;;;;;;5085130;28;20031;-77
2022/09/08 14:33:19;;;;;;;13.45;7.28;;;;;;;;;;5095341;28;20026;-77
2022/09/08 14:35:50;;;;;;;13.85;7.68;;;;;;;;;;5092493;28;20117;-76
2022/09/08 14:38:16;;;;;;;12.18;6.63;;;;;;;;;;5095383;28;20040;-78
2022/09/08 14:41:02;;;;;;;17.90;8.60;;;;;;;;;;5081718;28;20035;-78
2022/09/08 14:43:46;;;;;;;12.75;8.52;;;;;;;;;;5098108;28;20022;-75
2022/09/08 14:46:33;;;;;;;13.02;7.32;;;;;;;;;;5095374;28;20041;-78
2022/09/08 14:49:18;;;;;;;10.95;7.57;;;;;;;;;;5096260;28;20032;-77
2022/09/08 14:51:47;;;;;;;12.57;7.50;;;;;;;;;;5093446;28;20028;-74
2022/09/08 14:54:32;;;;;;;19.33;9.07;;;;;;;;;;5098156;28;20027;-77